Williamsburg, Colorado
Current Conditions -  °F | °C
As of 8:55 PM on Friday 28 Nov 2014 (Local Time) from K1V6 Reporting Station
Clear Clear  
Wind Chill: 59°   Ceiling: Unl
Heat Index: 59°   Visibility: 10mi
Dew Point:   Wind: 16mph
Humidity: 14%   Direction: 290°WNW
Pressure: 29.86"   Gusts: NA
Location:  38.3191°N, 105.161°W
Report Text: K1V6 290355Z AUTO 29014KT 10SM CLR 15/M13 A2986 RMK AO2
Loading
Personal Weather Stations






























Interactive Weather Map New forecast layout! Learn more

10-Day Weather Forecast

Advertisements
Track Severe Weather on mobile